CheckWX is a tool to help pilots better visualize weather data.  It is not intended as a substitute for an official pre-flight weather briefing.

07:42:26 UTC

OPPS TAF
Peshawar International Airport
Peshawar, Pakistan
TAF OPPS 190330Z 1906/2012 21015KT 4000 HZ FEW040 SCT100 BECMG 1909/1911 21015G30KT 4000 TS FEW030TCU/CB SCT040 BKN100 TEMPO 1914/1918 231015G25KT VCTS FEW030TCU TEMPO 2001/2004 21015KT VCTS FEW030TCU/CB TEMPO 2004/2008 SCT040

Jun-19@
06:00 UTC

Jun-19 @ 06:00 UTC

Jun-19@
09:00 UTC

Jun-19 @ 09:00 UTC

TAF OPPS 190330Z 1906/2012 21015KT 4000 HZ FEW040 SCT100
Wind
  • 210° at 15 KTS
Conditions
Haze
Cloud Levels
  • Few at 4,000' AGL
  • Scattered at 10,000' AGL

Jun-19@
09:00 UTC

Jun-19 @ 09:00 UTC

Jun-20@
12:00 UTC

Jun-20 @ 12:00 UTC

BECMG 1909/1911 21015G30KT 4000 TS FEW030TCU/CB SCT040 BKN100

Becoming

Becoming Conditions expected by Wed, Jun 19, 2019 @ 11:00 UTC

Wind
  • 210° at 15 KTS
  • {Gusting to 30 KTS
Conditions
Thunderstorm
Cloud Levels
  • Scattered at 4,000' AGL
  • Broken at 10,000' AGL

Jun-19@
14:00 UTC

Jun-19 @ 14:00 UTC

Jun-19@
18:00 UTC

Jun-19 @ 18:00 UTC

TEMPO 1914/1918 231015G25KT VCTS FEW030TCU

Temporary

Temporary Changes expected for less than half the time period

Wind
  • 231° at 15 KTS
  • {Gusting to 25 KTS
Conditions
Area Thunderstorm
Cloud Levels
  • Few at 3,000' AGL

Jun-20@
01:00 UTC

Jun-20 @ 01:00 UTC

Jun-20@
04:00 UTC

Jun-20 @ 04:00 UTC

TEMPO 2001/2004 21015KT VCTS FEW030TCU/CB

Temporary

Temporary Changes expected for less than half the time period

Wind
  • 210° at 15 KTS
Conditions
Area Thunderstorm

Jun-20@
04:00 UTC

Jun-20 @ 04:00 UTC

Jun-20@
08:00 UTC

Jun-20 @ 08:00 UTC

TEMPO 2004/2008 SCT040

Temporary

Temporary Changes expected for less than half the time period

Cloud Levels
  • Scattered at 4,000' AGL